Terminal Aerodrome Forecast
Issued by NWS

Home | Current Version | Previous Version | Text Only | Print | Product List | Glossary On
Versions: 1 2 3 4 5 6 7 8 9 10 11 12 13 14 15
000
FTUS46 KMTR 311738
TAFSNS
TAF
KSNS 311738Z 3118/0118 28005KT P6SM SCT200
     FM311900 29015G22KT P6SM FEW250
     FM010200 29010KT P6SM SCT012
      TEMPO 0102/0105 BKN011
     FM010500 29007KT P6SM OVC009
     FM011730 27010KT P6SM SCT011=

USA.gov is the U.S. government's official web portal to all federal, state and local government web resources and services.